Tiempo atmosférico en la estación meteorológica de Bardenas Reales, Base Aérea, Navarra (295 m.)



Fecha
DESCASC
Temp. máxima en grados centígrados (hora)
DESCASC
Temp. mínima en grados centígrados (hora)
DESCASC
Temp. media en grados centígrados
DESCASC
Racha de viento máxima en m/sg (hora)
DESCASC
Velocidad máxima media en intervalos de 10 minutos(hora)
DESCASC
Precipitaciones diarias en mm
DESCASC
Precipitaciones de 00:00 a 06:00 en mm
DESCASC
Precipitaciones de 06:00 a 12:00 en mm
DESCASC
Precipitaciones de 12:00 a 18:00 en mm
DESCASC
Precipitaciones de 18:00 a 24:00 en mm
DESCASC
27-01-2020 10.9 (14:20) 0.2 (06:00) 5.5 10.28 (16:40) 7.5 (16:30) 0 0 0 0 0
26-01-2020 13.3 (15:30) 3.7 (23:59) 8.5 9.17 (12:40) 6.67 (12:40) 1.6 1.6 0 0 0
25-01-2020 10.8 (16:20) 6 (00:00) 8.4 8.89 (15:50) 6.94 (15:50) 0.8 0 0 0.2 0.6
24-01-2020 11.5 (16:50) 4.5 (00:00) 8 6.67 (16:40) 5.28 (17:00) 0 0 0 0 0
23-01-2020 9.1 (15:40) 4.9 (00:00) 7 11.39 (17:10) 9.17 (17:10) 0.2 0 0.2 0 0
22-01-2020 9.9 (17:00) 3.1 (00:00) 6.5 5.56 (03:10) 3.33 (03:10) 5.8 5.8 0 0 0
21-01-2020 4.2 (17:20) 2.2 (00:00) 3.2 11.11 (02:50) 8.06 (08:00) 8.2 0 2.6 5.6 0
20-01-2020 4.5 (15:00) 1.1 (00:00) 2.8 15 (03:40) 10.56 (03:30) 0 0 0 0 0
19-01-2020 8.3 (10:20) 3.1 (00:00) 5.7 20.83 (13:10) 14.72 (13:30) 6.2 2.6 1.6 2 0
18-01-2020 11.2 (14:10) -0.4 (00:00) 5.4 13.89 (19:10) 10.56 (19:10) 10.8 0 0 0 10.8
17-01-2020 12.5 (15:10) 1.5 (00:00) 7 12.22 (13:30) 8.89 (13:50) 0.4 0.4 0 0 0
16-01-2020 14.9 (16:10) 1.4 (00:00) 8.1 11.39 (15:00) 8.89 (15:30) 0 0 0 0 0
15-01-2020 10.6 (15:10) -1.4 (-00:0) 4.6 9.17 (07:40) 7.22 (07:40) 0 0 0 0 0
14-01-2020 2.7 (14:30) -2.8 (-00:0) 0 8.89 (20:50) 6.39 (20:50) 0 0 0 0 0
13-01-2020 3.3 (14:30) -3.6 (-00:0) -0.1 3.89 (15:20) 2.78 (15:10) 0 0 0 0 0
12-01-2020 11.8 (15:40) -3.8 (-00:0) 4 8.89 (19:40) 6.94 (19:30) 0 0 0 0 0
11-01-2020 11.8 (15:50) 0.5 (00:00) 6.2 10.56 (04:40) 7.78 (02:00) 0 0 0 0 0
10-01-2020 10.9 (14:50) 3.5 (00:00) 7.2 14.44 (19:20) 10.83 (19:20) 0.2 0.2 0 0 0
09-01-2020 4.4 (14:50) 2.2 (00:00) 3.3 5.83 (19:40) 3.61 (19:00) 0.2 0 0 0 0.2
08-01-2020 4.5 (15:20) 0.4 (00:00) 2.5 5.83 (05:10) 4.17 (07:50) 0 0 0 0 0
07-01-2020 5.9 (17:00) -0.3 (00:00) 2.8 7.22 (23:00) 5 (23:00) 0 0 0 0 0
06-01-2020 3.5 (14:50) 0.9 (00:00) 2.2 8.06 (00:30) 6.11 (00:40) 0 0 0 0 0
05-01-2020 14.4 (16:20) 1 (00:00) 7.7 8.89 (23:30) 6.67 (23:40) 0 0 0 0 0
04-01-2020 12.9 (14:50) 5.9 (00:00) 9.4 16.39 (15:00) 12.22 (15:00) 0 0 0 0 0
03-01-2020 10.2 (16:40) -0.2 (00:00) 5 10.28 (16:50) 7.22 (23:50) 0 0 0 0 0
02-01-2020 0.8 (14:50) -0.5 (-00:0) 0.2 3.61 (12:00) 2.5 (11:30) 0 0 0 0 0
01-01-2020 1.5 (00:00) 0.1 (00:00) 0.8 -- (--) -- (--) 0 0 0 0 0
31-12-2019 2.8 (00:00) 1.4 (00:00) 2.1 4.72 (19:50) 2.78 (21:50) 0 0 0 0 0
30-12-2019 3.2 (17:00) 0.7 (00:00) 2 5 (10:20) 4.17 (10:20) 0 0 0 0 0

Gráficas

Temp. máximas Temp. mínimas Temp. medias Precipitaciones Rachas de viento máximas Velocidades máximas media en intervalos de 10 minutos

Datos horarios

Fecha y hora oficial Temperatura (ºC) Velocidad del viento (km/h) Dirección del viento Racha (km/h) Dirección de racha Precipitación (mm) Presión (hPa) Tendencia (hPa) Humedad (%)
2020-01-28 23:00:00 7.4 3 Norte 5 Norte 0 984.7 0.6 92
2020-01-28 22:00:00 8.6 4 Sudeste 8 Sur 0 984.5 0.6 88
2020-01-28 21:00:00 9.6 3 Norte 12 Sudoeste 0 984.4 1.1 85
2020-01-28 20:00:00 10.6 6 Sudeste 16 Sudoeste 0 984.1 0.8 83
2020-01-28 19:00:00 11.6 11 Sudoeste 18 Sudoeste 0 983.9 0.7 79
2020-01-28 18:00:00 12.7 9 Sur 15 Sudoeste 0 983.3 0.1 75
2020-01-28 17:00:00 14.5 10 Sudoeste 13 Sudoeste 0 983.3 -0.4 68
2020-01-28 16:00:00 14.9 8 Sudoeste 12 Oeste 0 983.2 -1.2 64
2020-01-28 15:00:00 14.6 9 Noroeste 25 Noroeste 0 983.2 -1.5 62
2020-01-28 14:00:00 14.8 13 Noroeste 21 Noroeste 0 983.7 -0.7 61
2020-01-28 13:00:00 13.6 4 Sur 8 Sudoeste 0 984.4 0.4 69
2020-01-28 12:00:00 11 2 Este 7 Sur 0 984.7 1.7 76
2020-01-28 11:00:00 8.8 3 Sur 5 Sudeste 0 984.4 1.9 84
2020-01-28 10:00:00 6.4 4 Sudoeste 14 Norte 0 984 2 91
2020-01-28 09:00:00 6.8 11 Nordeste 21 Este 0 983 1.2 87
2020-01-28 08:00:00 6.9 20 Este 24 Este 0 982.5 1.1 89
2020-01-28 07:00:00 6.3 6 Sudeste 15 Sudoeste 0 982 0.4 92
2020-01-28 06:00:00 6.5 13 Este 22 Este 0 981.8 0.2 89
2020-01-28 05:00:00 6.4 12 Sudeste 18 Este 0 981.4 -0.2 86
2020-01-28 04:00:00 8.9 12 Este 26 Este 0 981.6 -0.1 81
2020-01-28 03:00:00 7.5 23 Este 29 Este 0 981.6 -0.1 84
2020-01-28 02:00:00 7.4 23 Este 30 Este 0 981.6 -0.2 83
2020-01-28 01:00:00 8.3 23 Este 29 Este 0 981.7 -0.4 80
2020-01-28 00:00:00 8.2 21 Este 27 Este 0 981.7 -0.7 81
2020-01-27 23:00:00 9.6 19 Este 31 Este 0 981.8 -0.3 76
2020-01-27 22:00:00 8.3 22 Este 30 Este 0 982.1 -0.2 83
2020-01-27 21:00:00 8.8 18 Este 28 Este 0 982.4 0.4 80
2020-01-27 20:00:00 8.9 21 Este 32 Este 0 982.1 -0.1 77
2020-01-27 19:00:00 9.3 14 Este 33 Este 0 982.3 -0.3 75
2020-01-27 18:00:00 9.1 26 Este 34 Este 0 982 -1.4 78
2020-01-27 17:00:00 9.5 23 Este 37 Este 0 982.2 -1.8 78
2020-01-27 16:00:00 9.3 24 Este 33 Sudeste 0 982.6 -2.4 78
2020-01-27 15:00:00 9.6 16 Este 32 Sur 0 983.4 -2.3 75
2020-01-27 14:00:00 10.6 16 Sur 36 Sudoeste 0 984 -1.7 64
2020-01-27 13:00:00 9.3 17 Este 30 Este 0 985 -0.6 71
2020-01-27 12:00:00 7.8 21 Este 31 Este 0 985.7 -0.1 79
2020-01-27 11:00:00 6.3 19 Este 30 Este 0 985.7 0 86
2020-01-27 10:00:00 3.3 18 Este 24 Este 0 985.6 -0.3 97
2020-01-27 09:00:00 0.9 2 Nordeste 21 Este 0 985.8 -0.2 100
2020-01-27 08:00:00 1.1 3 Sur 10 Este 0 985.7 -0.8 100
2020-01-27 07:00:00 0.9 9 Nordeste 17 Este 0 985.9 -1.1 100
2020-01-27 06:00:00 0.4 3 Norte 8 Este 0 986 -1.3 100
2020-01-27 05:00:00 1.2 5 Sur 9 Sur 0 986.5 -0.6 100
2020-01-27 04:00:00 1.4 3 Noroeste 5 Noroeste 0 987 -0.7 100
2020-01-27 03:00:00 2.4 2 Oeste 8 Oeste 0 987.3 -0.4 100
2020-01-27 02:00:00 2.2 4 Noroeste 7 Norte 0 987.1 -0.5 99
2020-01-27 01:00:00 2.8 6 Norte 7 Nordeste 0 987.7 0.2 98
2020-01-27 00:00:00 3.7 4 Sudeste 8 Sudeste 0 987.7 0.9 94
2020-01-26 23:00:00 4.4 5 Sur 8 Sudeste 0 987.6 0.9 94
2020-01-26 22:00:00 5.2 6 Noroeste 8 Norte 0 987.5 1.4 92
2020-01-26 21:00:00 6.1 2 Sudeste 6 Este 0 986.8 1.1 86
2020-01-26 20:00:00 7.7 5 Sudeste 8 Sur 0 986.7 1.2 83
2020-01-26 19:00:00 9.2 8 Sudoeste 13 Sudoeste 0 986.1 0.7 77
2020-01-26 18:00:00 10.4 10 Sudoeste -- -- 0 985.7 0.3 74
2020-01-26 17:00:00 12.2 13 Noroeste 23 Noroeste 0 985.5 -0.4 56
2020-01-26 16:00:00 12.4 16 Noroeste 27 Noroeste 0 985.4 -1 55
2020-01-26 15:00:00 13.1 17 Noroeste 28 Noroeste 0 985.4 -1.4 57
2020-01-26 14:00:00 12.3 18 Noroeste 28 Noroeste 0 985.9 -0.5 62
2020-01-26 13:00:00 11.6 19 Noroeste 33 Noroeste 0 986.4 0.4 66
2020-01-26 12:00:00 10.2 17 Noroeste 24 Noroeste 0 986.8 1.5 82
2020-01-26 11:00:00 9 11 Oeste 18 Oeste 0 986.4 1.8 91
2020-01-26 10:00:00 7.5 10 Oeste 21 Oeste 0 986 2.1 93
2020-01-26 09:00:00 7.3 6 Oeste 13 Oeste 0 985.3 1.9 100
2020-01-26 08:00:00 7.2 3 Oeste 8 Oeste 0 984.6 1.5 100
2020-01-26 07:00:00 7 5 Sudoeste 12 Oeste 0 983.9 0.9 100
2020-01-26 06:00:00 7.3 5 Nordeste 6 Norte 0 983.4 0.7 100
2020-01-26 05:00:00 7.3 5 Noroeste 8 Sudeste 0 983.1 0.3 100
2020-01-26 04:00:00 7.5 9 Sudeste 16 Este 0 983 0.3 100
2020-01-26 03:00:00 7.7 14 Este 18 Este 0.2 982.7 -0.3 100
2020-01-26 02:00:00 7.9 14 Este 20 Este 0.2 982.8 -0.1 100
2020-01-26 01:00:00 8.3 15 Este 21 Este 1.2 982.7 -0.2 100
2020-01-26 00:00:00 8.2 10 Este 18 Este 0 983 0.5 100
2020-01-25 23:00:00 8.6 13 Este 18 Este 0.4 982.9 0.8 98
2020-01-25 22:00:00 8.7 10 Este 14 Este 0 982.9 1.2 95
2020-01-25 21:00:00 8.9 10 Sudeste 20 Este 0.2 982.5 1 92
2020-01-25 20:00:00 9.4 14 Este 23 Este 0 982.1 0.7 89
2020-01-25 19:00:00 9.7 15 Sudeste 20 Este 0 981.7 -0.1 86
2020-01-25 18:00:00 10.1 16 Este 28 Este 0 981.5 -0.7 83
2020-01-25 17:00:00 10.5 20 Este 31 Este 0 981.4 -1.6 81
2020-01-25 16:00:00 10.6 21 Este 32 Este 0 981.8 -2 78
2020-01-25 15:00:00 10.3 21 Este 30 Este 0 982.2 -2.4 82
2020-01-25 14:00:00 9.2 14 Este 28 Este 0 983 -1.5 90
2020-01-25 13:00:00 9 19 Este 30 Este 0.2 983.8 -0.3 91
2020-01-25 12:00:00 8.5 19 Este 26 Este 0 984.6 0.9 89
2020-01-25 11:00:00 7.7 9 Sudeste 19 Sudeste 0 984.5 1.1 92
2020-01-25 10:00:00 7.2 3 Sur 14 Sudeste 0 984.1 1 91
2020-01-25 09:00:00 7 10 Sur 17 Sudeste 0 983.7 0.3 92
2020-01-25 08:00:00 6.1 7 Sur 20 Este 0 983.4 0 96
2020-01-25 07:00:00 6.5 17 Este 20 Este 0 983.1 -0.6 96
2020-01-25 06:00:00 6.9 6 Nordeste 19 Este 0 983.4 -0.7 95
2020-01-25 05:00:00 7 15 Este 23 Este 0 983.4 -1 94
2020-01-25 04:00:00 7.1 17 Este 23 Este 0 983.7 -1.1 93
2020-01-25 03:00:00 7.3 11 Sudeste 18 Sudeste 0 984.1 -0.8 92
2020-01-25 02:00:00 7.6 13 Sudeste 20 Este 0 984.4 -0.6 93
2020-01-25 01:00:00 7.4 12 Este 22 Este 0 984.8 -0.5 93
2020-01-25 00:00:00 7.4 11 Sudeste 24 Este 0 984.9 -0.3 91
2020-01-24 23:00:00 7.7 17 Este 22 Este 0 985 -0.2 90
2020-01-24 22:00:00 7.7 13 Sudeste 16 Sudeste 0 985.3 0.8 88
2020-01-24 21:00:00 8.4 10 Este 13 Este 0 985.2 1 86
2020-01-24 20:00:00 8.1 7 Sudeste 14 Este 0 985.2 1.1 87
2020-01-24 19:00:00 9 9 Este 12 Este 0 984.5 0.1 84
2020-01-24 18:00:00 10.1 10 Este 22 Este 0 984.2 -0.7 79
2020-01-24 17:00:00 11.3 19 Este 24 Este 0 984.1 -1.5 69
2020-01-24 16:00:00 11.4 12 Este 19 Sudeste 0 984.4 -1.9 69
2020-01-24 15:00:00 10.5 13 Este 18 Este 0 984.9 -1.9 75
2020-01-24 14:00:00 10.4 12 Este 22 Sudeste 0 985.6 -1.3 75
2020-01-24 13:00:00 9.8 12 Este 21 Sudeste 0 986.3 -0.3 81
2020-01-24 12:00:00 8.4 13 Este 17 Este 0 986.8 0.4 85
2020-01-24 11:00:00 7.5 12 Sur 14 Sur 0 986.9 0.7 90
2020-01-24 10:00:00 6.1 3 Este 14 Este 0 986.6 0.4 94
2020-01-24 09:00:00 4.6 10 Sudeste 14 Este 0 986.4 0.3 96
2020-01-24 08:00:00 5.4 10 Este 17 Este 0 986.2 0.1 94
2020-01-24 07:00:00 5.6 9 Este 12 Este 0 986.2 -0.3 96
2020-01-24 06:00:00 5.2 11 Este 13 Este 0 986.1 -0.5 95
2020-01-24 05:00:00 5.6 6 Sudeste 14 Este 0 986.1 -0.6 92
2020-01-24 04:00:00 6.6 9 Sudeste 14 Este 0 986.5 -0.5 89
2020-01-24 03:00:00 6.5 10 Este 16 Este 0 986.6 -0.6 90
2020-01-24 02:00:00 6.7 13 Este 17 Este 0 986.7 -0.3 89
2020-01-24 01:00:00 6.8 15 Sudeste 19 Este 0 987 0.1 88
2020-01-24 00:00:00 6.6 10 Este 19 Este 0 987.2 0.8 89
2020-01-23 23:00:00 6.4 12 Este 28 Este 0 987 1.3 90
2020-01-23 22:00:00 6.4 13 Este 28 Este 0 986.9 1.5 92
2020-01-23 21:00:00 6.3 18 Este 32 Este 0 986.4 1.5 93
2020-01-23 20:00:00 6.6 22 Este 28 Este 0 985.7 1 92
2020-01-23 19:00:00 7 17 Este 30 Este 0 985.4 1 89
2020-01-23 18:00:00 7.5 25 Este 41 Este 0 984.9 0.5 85
2020-01-23 17:00:00 8.1 30 Este 40 Este 0 984.7 0 84
2020-01-23 16:00:00 8.7 25 Este 32 Este 0 984.4 -0.5 85
2020-01-23 15:00:00 8.4 18 Este 24 Este 0 984.4 -0.8 83
2020-01-23 14:00:00 8 15 Este 20 Este 0 984.7 -0.3 86
2020-01-23 13:00:00 7.7 12 Este 15 Este 0 984.9 -0.1 86
2020-01-23 12:00:00 7.2 4 Nordeste 7 Norte 0 985.2 0.7 93
2020-01-23 11:00:00 6.2 0 Calma 5 Este 0 985 0.4 99
2020-01-23 10:00:00 5.6 4 Este 6 Nordeste 0 985 1.3 100
2020-01-23 09:00:00 5.2 5 Sur 8 Sur 0 984.5 0.3 100
2020-01-23 08:00:00 5.2 2 Sudoeste 8 Noroeste 0 984.6 0.5 100
2020-01-23 07:00:00 5.1 6 Noroeste 8 Noroeste 0.2 983.7 -0.9 100
2020-01-23 06:00:00 5.1 8 Sudeste 10 Sur 0 984.2 -0.8 100
2020-01-23 05:00:00 5.1 3 Sur 12 Este 0 984.1 -0.9 99
2020-01-23 04:00:00 5.9 11 Este 17 Este 0 984.6 -0.8 100
2020-01-23 03:00:00 6 13 Este 17 Este 0 985 -0.3 100
2020-01-23 02:00:00 6 8 Este 16 Este 0 985 0 100
2020-01-23 01:00:00 5.9 14 Este 17 Este 0 985.4 0.6 99
2020-01-23 00:00:00 6.4 8 Este 10 Este 0 985.3 0.5 94
2020-01-22 23:00:00 6.7 7 Sur 9 Sur 0 985 0.3 93
2020-01-22 22:00:00 7.1 4 Sudeste 8 Sur 0 984.8 0.5 91
2020-01-22 21:00:00 7.4 5 Noroeste 9 Noroeste 0 984.8 0.7 89
2020-01-22 20:00:00 8 0 Calma 8 Sur 0 984.7 0.3 87
2020-01-22 19:00:00 8.4 6 Oeste 13 Oeste 0 984.3 -0.3 84
2020-01-22 18:00:00 9.2 9 Sudoeste 12 Oeste 0 984.1 -1.3 82
2020-01-22 17:00:00 9.9 8 Noroeste 14 Oeste 0 984.4 -1.7 78
2020-01-22 16:00:00 9.2 12 Oeste 15 Oeste 0 984.6 -2.5 79
2020-01-22 15:00:00 8.6 8 Oeste 16 Oeste 0 985.4 -2.5 82
2020-01-22 14:00:00 8 11 Oeste 15 Oeste 0 986.1 -1.9 81
2020-01-22 13:00:00 7.1 8 Oeste 13 Oeste 0 987.1 -0.9 88
2020-01-22 12:00:00 6.1 4 Sudoeste 8 Sudoeste 0 987.9 0.3 94
2020-01-22 11:00:00 4.8 2 Oeste -- -- -- 988 0.7 98
2020-01-22 10:00:00 3.8 0 Calma 3 Sur 0 988 0.7 --
2020-01-22 09:00:00 3.2 3 Sudoeste 8 Sudoeste 0 987.6 0.3 100
2020-01-22 08:00:00 3.4 0 Calma 14 Oeste 0 987.3 -0.3 99
2020-01-22 07:00:00 3.7 3 Norte 8 Oeste 0 987.3 -1 100
2020-01-22 06:00:00 3.6 6 Oeste 10 Sudoeste 0 987.3 -1.5 100
2020-01-22 05:00:00 3.6 8 Oeste 16 Norte 0 987.6 -1.1 99
2020-01-22 04:00:00 3.6 9 Norte 20 Noroeste 1.2 988.3 -0.7 100
2020-01-22 03:00:00 3.4 9 Norte 15 Oeste 3 988.8 0 99
2020-01-22 02:00:00 3.5 4 Sudoeste 12 Noroeste 1.2 988.7 0.6 93
2020-01-22 01:00:00 3.7 8 Noroeste 13 Noroeste 0.4 989 0.7 89
2020-01-22 00:00:00 3.9 10 Noroeste 23 Oeste 0 988.8 0.8 86
2020-01-21 23:00:00 4.1 16 Oeste 24 Oeste 0 988.1 0.5 85
2020-01-21 22:00:00 3.9 18 Oeste 26 Oeste 0 988.3 1.2 86
2020-01-21 21:00:00 4 16 Oeste 23 Oeste 0 988 0.6 85
2020-01-21 20:00:00 4 10 Noroeste 24 Oeste 0 987.6 0.4 87
2020-01-21 19:00:00 3.9 15 Noroeste 32 Noroeste 0 987.1 -0.8 87
2020-01-21 18:00:00 4.2 16 Oeste 32 Oeste 0 987.4 -0.8 86
2020-01-21 17:00:00 4.1 23 Noroeste 39 Noroeste 0 987.2 -2.2 89
2020-01-21 16:00:00 3.9 24 Noroeste 36 Noroeste 0 987.9 -2.1 90
2020-01-21 15:00:00 3.8 25 Noroeste 36 Noroeste 1.2 988.2 -2.6 92
2020-01-21 14:00:00 3.3 18 Noroeste 30 Oeste 2.8 989.4 -1.2 94
2020-01-21 13:00:00 3.3 16 Noroeste 35 Oeste 1.6 990 -0.6 92
2020-01-21 12:00:00 3.2 21 Noroeste 34 Noroeste 0.8 990.8 -0.1 89
2020-01-21 11:00:00 3.1 22 Noroeste 32 Noroeste 0.6 990.6 0.1 87
2020-01-21 10:00:00 2.9 23 Noroeste 33 Oeste 0 990.6 -0.7 84
2020-01-21 09:00:00 2.4 14 Noroeste 37 Noroeste 0 990.9 -0.4 86
2020-01-21 08:00:00 2.4 29 Oeste 40 Noroeste 1.2 990.5 -1.3 85
2020-01-21 07:00:00 3.2 25 Noroeste 38 Noroeste 0 991.3 -0.7 74
2020-01-21 06:00:00 3.4 12 Noroeste 33 Noroeste 0 991.3 -1.3 70
2020-01-21 05:00:00 3.4 14 Noroeste 30 Noroeste 0 991.8 -1.6 68
2020-01-21 04:00:00 3.2 16 Noroeste 32 Noroeste 0 992 -2 72
2020-01-21 03:00:00 3 25 Noroeste 40 Oeste 0 992.6 -1.2 73
2020-01-21 02:00:00 2.9 22 Noroeste 32 Noroeste 0 993.4 -0.4 73
2020-01-21 01:00:00 2.6 24 Oeste 38 Oeste 0 994 0.1 72
2020-01-21 00:00:00 2.4 29 Oeste 39 Oeste 0 993.8 -0.1 72
2020-01-20 23:00:00 2.3 29 Oeste 40 Noroeste 0 993.8 0.1 72
2020-01-20 22:00:00 2.7 27 Oeste 41 Oeste 0 993.9 0.4 70
2020-01-20 21:00:00 3.2 31 Oeste 43 Noroeste 0 993.9 0.8 69
2020-01-20 20:00:00 3.3 33 Noroeste 46 Oeste 0 993.7 1.2 69
2020-01-20 19:00:00 3.4 32 Noroeste 44 Noroeste 0 993.5 1 66
2020-01-20 18:00:00 3.5 27 Noroeste 40 Noroeste 0 993.1 0.5 65
2020-01-20 17:00:00 4.1 31 Noroeste 49 Oeste 0 992.5 -0.6 61
2020-01-20 16:00:00 4.5 33 Noroeste 46 Noroeste 0 992.5 -1.3 58
2020-01-20 15:00:00 4.4 33 Noroeste 48 Noroeste 0 992.6 -1.7 58
2020-01-20 14:00:00 4.2 34 Noroeste 48 Noroeste 0 993.1 -1 59
2020-01-20 13:00:00 3.9 32 Noroeste 46 Noroeste 0 993.8 0.1 62
2020-01-20 12:00:00 3 29 Oeste 44 Noroeste 0 994.3 1.6 64
2020-01-20 11:00:00 2.5 30 Oeste 44 Oeste 0 994.1 1.8 67
2020-01-20 10:00:00 1.8 27 Oeste 46 Oeste 0 993.7 1.7 69
2020-01-20 09:00:00 1.4 36 Oeste 50 Oeste 0 992.7 0.8 70
2020-01-20 08:00:00 1.1 32 Oeste 46 Oeste 0 992.3 0.4 71
2020-01-20 07:00:00 1.3 31 Oeste 44 Oeste 0 992 0 70
2020-01-20 06:00:00 1.5 34 Oeste 50 Noroeste 0 991.9 -0.3 69
2020-01-20 05:00:00 1.7 34 Oeste 50 Noroeste 0 991.9 -0.8 68
2020-01-20 04:00:00 2.2 36 Noroeste 54 Noroeste 0 992 -1.1 66
2020-01-20 03:00:00 2.4 37 Noroeste 53 Noroeste 0 992.2 -0.9 65
2020-01-20 02:00:00 2.5 31 Noroeste 43 Noroeste 0 992.7 -0.2 66
2020-01-20 01:00:00 2.5 23 Noroeste 35 Noroeste 0 993.1 0.7 65
2020-01-20 00:00:00 3.2 22 Noroeste 41 Noroeste 0 993.1 1.5 60
2020-01-19 23:00:00 3.4 20 Noroeste 43 Noroeste 0 992.9 1.9 60
2020-01-19 22:00:00 4.4 28 Noroeste 49 Noroeste 0 992.4 1.9 54
2020-01-19 21:00:00 5.1 30 Noroeste 59 Noroeste 0 991.6 1.6 50
2020-01-19 20:00:00 4.8 35 Noroeste 55 Noroeste 0 991 1.4 53
2020-01-19 19:00:00 4.8 33 Noroeste 61 Noroeste 0 990.5 1.1 56
2020-01-19 18:00:00 5.6 40 Noroeste 63 Noroeste 0 990 0.9 56
2020-01-19 17:00:00 7.1 47 Noroeste 74 Noroeste 0.4 989.6 1.1 49
2020-01-19 16:00:00 7.8 48 Noroeste 68 Noroeste 0 989.4 0.4 52
2020-01-19 15:00:00 7.6 48 Noroeste 75 Noroeste 1.2 989.1 0.7 62
2020-01-19 14:00:00 7.6 51 Noroeste 75 Noroeste 0.2 988.5 0.7 63
2020-01-19 13:00:00 7.2 49 Noroeste 69 Noroeste 0.2 989 2.3 67
2020-01-19 12:00:00 7.5 46 Noroeste 62 Noroeste 0.2 988.4 2.5 68
2020-01-19 11:00:00 6.6 37 Noroeste 52 Noroeste 0 987.8 2.9 72
2020-01-19 10:00:00 7.9 27 Noroeste 38 Noroeste 0 986.7 2.4 63
2020-01-19 09:00:00 6.5 17 Noroeste 26 Noroeste 0 985.9 1.9 84
2020-01-19 08:00:00 6 16 Noroeste 25 Noroeste 0.6 984.9 0.7 93
2020-01-19 07:00:00 6.2 20 Noroeste 31 Noroeste 0.8 984.3 -0.3 95
2020-01-19 06:00:00 5.9 20 Noroeste 27 Noroeste 0.2 984 -1 96
2020-01-19 05:00:00 5.6 17 Noroeste 26 Noroeste 0 984.2 -1.1 98
2020-01-19 04:00:00 5.4 6 Noroeste 18 Noroeste 0.2 984.6 -0.8 98
2020-01-19 03:00:00 5.4 15 Noroeste 23 Noroeste 0.4 985 -0.3 99
2020-01-19 02:00:00 5.6 17 Noroeste 30 Noroeste 0.8 985.3 0.6 98
2020-01-19 01:00:00 5.6 21 Oeste 27 Oeste 1 985.4 1.9 100
2020-01-19 00:00:00 5.8 15 Noroeste 39 Noroeste 1.2 985.3 2.9 95
2020-01-18 23:00:00 5.9 24 Noroeste 36 Oeste 4.8 984.7 1.1 97
2020-01-18 22:00:00 6.5 20 Este 41 Este 4.6 983.5 -0.5 93
2020-01-18 21:00:00 6.9 36 Este 47 Este 0 982.4 -2.2 86
2020-01-18 20:00:00 6.8 31 Este 50 Este 0.2 983.6 -1.1 89
2020-01-18 19:00:00 7.7 36 Este 49 Este 0 984 -1.4 79
2020-01-18 18:00:00 9.1 31 Este 40 Este 0 984.6 -2 68
2020-01-18 17:00:00 9.6 27 Este 40 Este 0 984.7 -3.4 69
2020-01-18 16:00:00 10.6 30 Este 41 Este 0 985.4 -4.4 63
2020-01-18 15:00:00 10.8 27 Este 38 Este 0 986.6 -4.8 60
2020-01-18 14:00:00 10.9 26 Este 40 Este 0 988.1 -4.4 61
2020-01-18 13:00:00 9.9 30 Este 40 Este 0 989.8 -3.1 64
2020-01-18 12:00:00 7.5 24 Este 33 Este 0 991.4 -2 72
2020-01-18 11:00:00 5.7 10 Este 20 Este 0 992.5 -0.9 85
2020-01-18 10:00:00 3.8 9 Este 14 Este 0 992.9 -1.3 91
2020-01-18 09:00:00 2.8 9 Este 18 Este 0 993.4 -0.9 96
2020-01-18 08:00:00 2.4 15 Este 22 Este 0 993.4 -1.4 97
2020-01-18 07:00:00 1.4 8 Norte 11 Norte 0 994.2 -0.5 --
2020-01-18 06:00:00 1.1 6 Este 8 Nordeste 0 994.3 -0.8 100
2020-01-18 05:00:00 0.9 2 Norte 7 Sur 0 994.8 -0.7 97
2020-01-18 04:00:00 0.7 3 Noroeste 6 Este 0 994.7 -1.2 97
2020-01-18 03:00:00 0.2 4 Nordeste 7 Oeste 0 995.1 -1.5 96
2020-01-18 02:00:00 -0.2 4 Noroeste 5 Noroeste 0 995.5 -1 92
2020-01-18 01:00:00 2 0 Calma 8 Nordeste 0 995.9 -0.9 94
2020-01-18 00:00:00 1.8 3 Sudoeste 8 Sudoeste 0 996.6 0.2 92
2020-01-17 23:00:00 2.6 3 Sudeste 8 Sur 0 996.5 0.2 89
2020-01-17 22:00:00 3.3 6 Sudeste 10 Norte 0 996.8 1 87
2020-01-17 21:00:00 5.1 10 Noroeste 14 Oeste 0 996.4 1.9 81
2020-01-17 20:00:00 5.1 14 Oeste 15 Oeste 0 996.3 2.7 80
2020-01-17 19:00:00 6.8 8 Oeste 21 Noroeste 0 995.8 3.2 73
2020-01-17 18:00:00 8.6 19 Noroeste 31 Noroeste 0 994.5 2 64
2020-01-17 17:00:00 10.6 22 Noroeste 40 Noroeste 0 993.6 1.1 58
2020-01-17 16:00:00 12.3 29 Noroeste 41 Noroeste 0 992.6 0 53
2020-01-17 15:00:00 12.1 27 Noroeste 36 Noroeste 0 992.5 -0.1 57
2020-01-17 14:00:00 11.5 30 Noroeste 44 Noroeste 0 992.5 0.3 60
2020-01-17 13:00:00 11.3 15 Oeste 28 Oeste 0 992.6 1.2 68
2020-01-17 12:00:00 10.6 4 Sur 10 Sur 0 992.6 1.9 76
2020-01-17 11:00:00 9.4 6 Oeste 12 Sudoeste 0 992.2 2.2 79
2020-01-17 10:00:00 7.5 5 Noroeste 13 Este 0 991.4 2.2 86
2020-01-17 09:00:00 5.6 4 Sudeste 22 Este 0 990.7 1.5 88
2020-01-17 08:00:00 5.9 13 Este 27 Este 0 990 0.8 90
2020-01-17 07:00:00 6.2 20 Este 29 Este 0 989.2 0.1 90
2020-01-17 06:00:00 6.7 22 Este 32 Este 0 989.2 -0.4 89
2020-01-17 05:00:00 7.5 22 Este 33 Este 0 989.2 -0.2 87
2020-01-17 04:00:00 7.1 24 Este 31 Este 0 989.1 -0.4 88
2020-01-17 03:00:00 8.1 24 Este 35 Este 0.2 989.6 0.6 87
2020-01-17 02:00:00 8.2 22 Este 32 Este 0.2 989.4 0.5 86
2020-01-17 01:00:00 8.3 18 Sudeste 26 Este 0 989.5 0.4 82
2020-01-17 00:00:00 8.1 19 Este 35 Este 0 989 -0.1 83
2020-01-16 23:00:00 8.4 27 Este 34 Este 0 988.9 0.5 82
2020-01-16 22:00:00 8.9 26 Este 39 Este 0 989.1 0.7 79
2020-01-16 21:00:00 9.1 18 Este 30 Este 0 989.1 0.8 79
2020-01-16 20:00:00 9.1 16 Este 30 Este 0 988.4 0.6 78
2020-01-16 19:00:00 10.2 19 Este 28 Este 0 988.4 0.5 76
2020-01-16 18:00:00 11.9 10 Sur 32 Este 0 988.3 -0.1 69
2020-01-16 17:00:00 13.7 19 Este 39 Este 0 987.8 -1.7 63
2020-01-16 16:00:00 14.7 27 Este 40 Este 0 987.9 -2.7 58
2020-01-16 15:00:00 13.6 30 Este 41 Este 0 988.4 -3 62
2020-01-16 14:00:00 13.3 27 Sudeste 35 Sudeste 0 989.5 -2.2 63
2020-01-16 13:00:00 11.7 22 Este 30 Sudeste 0 990.6 -1.3 67
2020-01-16 12:00:00 9.4 22 Este 37 Este 0 991.4 -0.3 75
2020-01-16 11:00:00 6.5 22 Este 33 Este 0 991.7 0.1 84
2020-01-16 10:00:00 5.2 21 Este 31 Este 0 991.9 0.9 87
2020-01-16 09:00:00 1.5 13 Este 18 Este 0 991.7 0.7 98
2020-01-16 08:00:00 1.5 5 Sudeste 22 Este 0 991.6 0.4 95
2020-01-16 07:00:00 2.8 13 Este 20 Este 0 991 0.2 97
2020-01-16 06:00:00 2.4 15 Este 20 Este 0 991 -0.1 94
2020-01-16 05:00:00 3.2 15 Este 28 Este 0 991.2 0.2 92
2020-01-16 04:00:00 3.4 18 Este 25 Este 0 990.8 -0.1 93
2020-01-16 03:00:00 2.3 18 Este 24 Este 0 991.1 -0.2 95
2020-01-16 02:00:00 2.1 16 Este 23 Este 0 991 -0.1 94
2020-01-16 01:00:00 2.9 5 Este 18 Este 0 990.9 0.1 94
2020-01-16 00:00:00 2.3 5 Este 12 Este 0 991.3 0.9 97
2020-01-15 23:00:00 1.6 4 Sur 7 Sur 0 991.1 1 91
2020-01-15 22:00:00 3.4 3 Oeste 8 Sur 0 990.8 1.6 89
2020-01-15 21:00:00 4.7 9 Este 16 Sudeste 0 990.4 1.6 85
2020-01-15 20:00:00 6.4 9 Sudeste 21 Este 0 990.1 2.3 80
2020-01-15 19:00:00 8.1 19 Este 23 Este 0 989.2 1.7 75
2020-01-15 18:00:00 8.8 10 Este 19 Este 0 988.8 1.4 73
2020-01-15 17:00:00 9.5 14 Este 26 Este 0 987.8 -0.1 71
2020-01-15 16:00:00 9.9 13 Este 22 Este 0 987.5 -1.1 70
2020-01-15 15:00:00 10.2 16 Este 21 Este 0 987.4 -2 66
2020-01-15 14:00:00 9.1 11 Sudeste 21 Sudeste 0 987.9 -0.7 70
2020-01-15 13:00:00 6 6 Sudeste 17 Sudeste 0 988.6 0.8 82
2020-01-15 12:00:00 4.3 4 Sur 19 Sudeste 0 989.4 2 84
2020-01-15 11:00:00 4.3 16 Sudeste 31 Este 0 988.6 1.6 81
2020-01-15 10:00:00 4.2 22 Este 30 Este 0 987.8 1.5 77
2020-01-15 09:00:00 2.1 19 Este 27 Este 0 987.4 1.6 87
2020-01-15 08:00:00 2.2 22 Este 33 Este 0 987 1 85
2020-01-15 07:00:00 2.4 18 Este 31 Este 0 986.3 -0.1 86
2020-01-15 06:00:00 2 22 Este 29 Este 0 985.8 -0.1 88
2020-01-15 05:00:00 1.4 19 Este 23 Este 0 986 0.2 92
2020-01-15 04:00:00 0.9 4 Sur 23 Este 0 986.4 0 95
2020-01-15 03:00:00 -1.3 12 Este 14 Este 0 985.9 -0.5 --
2020-01-15 02:00:00 -1 8 Nordeste 11 Nordeste 0 985.8 -0.1 --
2020-01-15 01:00:00 -0.1 7 Sudoeste 12 Sur 0 986.4 0.2 --
2020-01-15 00:00:00 0.6 7 Oeste 32 Sudeste 0 986.4 0.4 97
2020-01-14 23:00:00 1.5 18 Sudeste 24 Sudeste 0 985.9 0.2 98
2020-01-14 22:00:00 0.1 8 Sur 16 Sudeste 0 986.2 0.5 --
2020-01-14 21:00:00 1.6 13 Sur 32 Sudeste 0 986 0.3 --
2020-01-14 20:00:00 1 14 Sudeste 20 Este 0 985.7 0.3 --
2020-01-14 19:00:00 0 4 Sur 16 Este 0 985.7 0.2 --
2020-01-14 18:00:00 1 7 Sur 13 Sudoeste 0 985.7 0.2 --
2020-01-14 17:00:00 1.3 8 Sudoeste 14 Sudoeste 0 985.4 -0.5 --
2020-01-14 16:00:00 1.8 7 Sur 16 Sudoeste 0 985.5 -1.2 --
2020-01-14 15:00:00 2 13 Sudoeste 17 Sudoeste 0 985.5 -1.9 --
2020-01-14 14:00:00 1.9 5 Sudoeste 12 Sudoeste 0 985.9 -1.8 --
2020-01-14 13:00:00 -0.4 6 Sur 11 Sur 0 986.7 -0.9 --
2020-01-14 12:00:00 -1.3 4 Este 10 Este 0 987.4 0.5 --
2020-01-14 11:00:00 -1.9 3 Este 10 Este 0 987.7 0.9 --
2020-01-14 10:00:00 -2.3 6 Este 10 Sudeste 0 987.6 1 --
2020-01-14 09:00:00 -2.6 6 Este 11 Este 0 986.9 0.4 --
2020-01-14 08:00:00 -2.4 4 Sudeste 8 Sur 0 986.8 0.2 --
2020-01-14 07:00:00 -2.1 2 Sudeste 6 Noroeste 0 986.6 0.4 --
2020-01-14 06:00:00 -2 6 Oeste 10 Oeste 0 986.5 0.1 --
2020-01-14 05:00:00 -1.9 6 Sudoeste 15 Sudeste 0 986.6 -0.1 --
2020-01-14 04:00:00 -1.9 8 Este 16 Este 0 986.2 -1.4 --
2020-01-14 03:00:00 -2.1 6 Este 9 Sudeste 0 986.4 -1.4 --
2020-01-14 02:00:00 -1.6 3 Sudeste 8 Sudeste 0 986.7 -0.4 --
2020-01-14 01:00:00 -1.7 2 Este 11 Sudeste 0 987.6 0.7 --
2020-01-14 00:00:00 -1.8 6 Oeste 8 Oeste 0 987.8 0.9 --
2020-01-13 23:00:00 -2.1 4 Sur 9 Sudeste 0 987.1 0.3 --
2020-01-13 22:00:00 -2.1 3 Nordeste 9 Sudeste 0 986.9 0.2 --
2020-01-13 21:00:00 -2.1 5 Sur 10 Sudeste 0 986.9 0.2 --
2020-01-13 20:00:00 -0.9 2 Oeste 6 Norte 0 986.8 -0.4 97
2020-01-13 19:00:00 0.4 2 Norte 6 Sur 0 986.7 -0.8 96
2020-01-13 18:00:00 1.7 5 Sur 11 Oeste 0 986.7 -1 91
2020-01-13 17:00:00 2.5 7 Oeste 11 Sur 0 987.2 -1.3 92
2020-01-13 16:00:00 2.4 9 Sudoeste 14 Sudoeste 0 987.5 -2 94
2020-01-13 15:00:00 2.7 10 Sudoeste 13 Sudoeste 0 987.7 -2.9 91
2020-01-13 14:00:00 3.1 3 Sudoeste 11 Oeste 0 988.5 -2.3 92
2020-01-13 13:00:00 1.2 5 Sudoeste 9 Oeste 0 989.5 -1.1 99
2020-01-13 12:00:00 0.3 4 Sudoeste 6 Sudoeste 0 990.6 -0.1 --
2020-01-13 11:00:00 -1.3 0 Calma 5 Oeste 0 990.8 0 --
2020-01-13 10:00:00 -2.8 2 Oeste 4 Sudeste 0 990.6 -0.2 --
2020-01-13 09:00:00 -3.4 2 Este 6 Sur 0 990.7 -0.4 --
2020-01-13 08:00:00 -3.5 3 Sur 5 Oeste 0 990.8 -0.6 --
2020-01-13 07:00:00 -3.2 3 Sudeste 5 Sudeste 0 990.8 -1.1 99
2020-01-13 06:00:00 -2.8 2 Sur 5 Sudeste 0 991.1 -1.4 99
2020-01-13 05:00:00 -2.4 5 Noroeste 9 Oeste 0 991.4 -1.4 99
2020-01-13 04:00:00 -1.9 0 Calma 6 Norte 0 991.9 -1.6 99
2020-01-13 03:00:00 -1.8 6 Norte 13 Este 0 992.5 -1.1 100
2020-01-13 02:00:00 -1 5 Este 8 Sudeste 0 992.8 -0.7 99
2020-01-13 01:00:00 -0.9 4 Noroeste 12 Este 0 993.5 -0.3 97
2020-01-13 00:00:00 0.4 8 Este 20 Este 0 993.6 -0.3 95
2020-01-12 23:00:00 1.3 19 Este 23 Este 0 993.5 -0.4 95
2020-01-12 22:00:00 2.3 19 Este 24 Este 0 993.8 0.4 93
2020-01-12 21:00:00 2.9 20 Este 28 Este 0 993.9 1.1 91
2020-01-12 20:00:00 3.4 23 Este 32 Este 0 993.9 1.3 89
2020-01-12 19:00:00 5.1 23 Este 28 Este 0 993.4 0.9 82
2020-01-12 18:00:00 8 17 Este 20 Este 0 992.8 0.1 69
2020-01-12 17:00:00 11.1 6 Sudeste 10 Sudeste 0 992.6 -1.1 53
2020-01-12 16:00:00 11.3 7 Sudeste 10 Sudeste 0 992.5 -2.3 54
2020-01-12 15:00:00 11.5 4 Sur 9 Este 0 992.7 -3.2 53
2020-01-12 14:00:00 9 5 Nordeste 10 Este 0 993.7 -2.2 61
2020-01-12 13:00:00 7.7 4 Norte 9 Norte 0 994.8 -0.3 62
2020-01-12 12:00:00 5.4 4 Este 12 Este 0 995.9 1.5 75
2020-01-12 11:00:00 3 7 Sudeste 10 Este 0 995.9 1.5 86
2020-01-12 10:00:00 0.5 7 Este 10 Este 0 995.1 0.7 100
2020-01-12 09:00:00 -3.2 4 Sudeste 5 Sudeste 0 994.4 0.2 --
2020-01-12 08:00:00 -3.5 2 Sur 5 Norte 0 994.4 0 --
2020-01-12 07:00:00 -3.2 4 Norte 5 Noroeste 0 994.4 0 --
2020-01-12 06:00:00 -2.4 0 Calma 5 Noroeste 0 994.2 -0.2 99
2020-01-12 05:00:00 -2.2 3 Noroeste 6 Noroeste 0 994.4 0.2 99
2020-01-12 04:00:00 -1.9 2 Nordeste 5 Norte 0 994.4 0 97
2020-01-12 03:00:00 -1.5 0 Calma 5 Sur 0 994.4 -0.2 98
2020-01-12 02:00:00 -1.3 2 Sur 5 Nordeste 0 994.2 -0.5 95
2020-01-12 01:00:00 -0.4 4 Noroeste 5 Noroeste 0 994.4 0 95
2020-01-12 00:00:00 0.5 4 Noroeste 6 Oeste 0 994.6 0.2 93
2020-01-11 23:00:00 2.2 6 Sudoeste 10 Sudoeste 0 994.7 0.5 89
2020-01-11 22:00:00 2.7 4 Sudeste 7 Sudeste 0 994.4 0.7 86
2020-01-11 21:00:00 3.6 4 Sudeste 6 Sudeste 0 994.4 1.1 81
2020-01-11 20:00:00 4.2 5 Norte 6 Noroeste 0 994.2 0.8 82
2020-01-11 19:00:00 6.4 6 Oeste 12 Oeste 0 993.7 0 75
2020-01-11 18:00:00 8.8 10 Oeste 13 Oeste 0 993.3 -0.7 66
2020-01-11 17:00:00 11.6 11 Oeste 19 Oeste 0 993.4 -1.2 54
2020-01-11 16:00:00 11.7 15 Noroeste 28 Oeste 0 993.7 -1.8 52
2020-01-11 15:00:00 11.3 18 Oeste 27 Oeste 0 994 -2.4 54
2020-01-11 14:00:00 10.9 18 Oeste 31 Noroeste 0 994.6 -2.1 56
2020-01-11 13:00:00 10.1 23 Noroeste 33 Oeste 0 995.5 -0.9 59
2020-01-11 12:00:00 9.2 27 Oeste 37 Oeste 0 996.4 0.3 62
2020-01-11 11:00:00 7.9 19 Oeste 27 Oeste 0 996.7 0.8 67
2020-01-11 10:00:00 6.1 20 Noroeste 28 Noroeste 0 996.4 0.9 73
2020-01-11 09:00:00 4.3 19 Noroeste 32 Noroeste 0 996.1 0.8 82
2020-01-11 08:00:00 4.7 22 Oeste 31 Oeste 0 995.9 0.6 80
2020-01-11 07:00:00 4.5 22 Oeste 29 Oeste 0 995.5 -0.3 80
2020-01-11 06:00:00 4.8 22 Oeste 37 Oeste 0 995.3 -0.5 78
2020-01-11 05:00:00 5.4 27 Oeste -- -- 0 995.3 -0.1 76
2020-01-11 04:00:00 4.9 17 Oeste 37 Oeste 0 995.8 0.4 78
2020-01-11 03:00:00 6.1 26 Oeste 37 Oeste 0 995.8 0.3 74
2020-01-11 02:00:00 6.4 28 Oeste 37 Noroeste 0 995.4 0 72
2020-01-11 01:00:00 6 20 Oeste 33 Oeste 0 995.4 0.2 77
2020-01-11 00:00:00 6 22 Noroeste 38 Noroeste 0 995.5 0.6 80
2020-01-10 23:00:00 7.2 28 Oeste 41 Oeste 0 995.4 1 76
2020-01-10 22:00:00 7.5 30 Oeste 41 Oeste 0 995.2 0.9 76
2020-01-10 21:00:00 7.3 23 Noroeste 44 Noroeste 0 994.9 1 79
2020-01-10 20:00:00 7.7 32 Noroeste 52 Noroeste 0 994.4 0.9 77
2020-01-10 19:00:00 8.4 31 Noroeste 43 Noroeste 0 994.3 1.1 73
2020-01-10 18:00:00 9 30 Noroeste 41 Noroeste 0 993.9 0.9 68
2020-01-10 17:00:00 9.9 25 Noroeste 41 Noroeste 0 993.5 0.4 67
2020-01-10 16:00:00 10.8 28 Noroeste 41 Oeste 0 993.2 -0.3 66
2020-01-10 15:00:00 9.7 26 Oeste 37 Oeste 0 993 -0.7 75
2020-01-10 14:00:00 9.8 30 Oeste 39 Noroeste 0 993.1 -0.7 75
2020-01-10 13:00:00 9.4 25 Oeste 36 Oeste 0 993.5 0.3 72
2020-01-10 12:00:00 9.3 23 Oeste 38 Noroeste 0 993.7 1.2 74
2020-01-10 11:00:00 7.4 19 Noroeste 27 Noroeste 0 993.8 1.5 88
2020-01-10 10:00:00 5.8 13 Noroeste 20 Noroeste 0 993.2 1.4 95
2020-01-10 09:00:00 3.7 12 Noroeste 25 Noroeste 0 992.5 1.3 100
2020-01-10 08:00:00 3.8 15 Noroeste 28 Oeste 0 992.3 1.1 99
2020-01-10 07:00:00 4.4 15 Noroeste 18 Noroeste 0 991.8 0.6 --
2020-01-10 06:00:00 4.2 12 Noroeste 18 Noroeste 0 991.2 0.3 --
2020-01-10 05:00:00 4.6 4 Oeste 10 Oeste 0 991.2 0.6 --
2020-01-10 04:00:00 4.7 9 Noroeste 13 Sudoeste 0 991.2 0.3 --
2020-01-10 03:00:00 4.4 8 Sudoeste 10 Sudoeste 0.2 990.9 0.1 --
2020-01-10 02:00:00 4.2 6 Oeste 18 Oeste 0 990.6 0.5 --
2020-01-10 01:00:00 4 10 Oeste 18 Oeste 0 990.9 1 --
2020-01-10 00:00:00 3.9 6 Sudoeste 15 Oeste 0.2 990.8 0.8 --
2020-01-09 23:00:00 3.5 5 Oeste 9 Sudoeste 0 990.1 -0.4 --
2020-01-09 22:00:00 3.5 2 Noroeste 10 Sur 0 989.9 -0.6 --
2020-01-09 21:00:00 3.5 5 Sur 8 Sudoeste 0 990 0.2 --
2020-01-09 20:00:00 3.5 6 Oeste 21 Oeste 0 990.5 1.4 --
2020-01-09 19:00:00 3.2 13 Oeste 18 Oeste 0 990.5 1.9 --
2020-01-09 18:00:00 3.2 10 Oeste 15 Sudoeste 0 989.8 0.3 --
2020-01-09 17:00:00 3.6 12 Sudoeste 17 Sudoeste 0 989.1 -1 --
2020-01-09 16:00:00 3.9 5 Sur 16 Sudoeste 0 988.6 -2.5 --
2020-01-09 15:00:00 4.4 4 Sur 15 Sudeste 0 989.5 -3.1 --
2020-01-09 14:00:00 4 6 Este 13 Este 0 990.1 -2.9 --
2020-01-09 13:00:00 3.4 6 Sudeste 9 Sudeste 0 991.1 -1.5 --
2020-01-09 12:00:00 2.9 4 Sur 9 Sudoeste 0 992.6 0 --
2020-01-09 11:00:00 2.7 6 Sudoeste 11 Sudoeste 0 993 0.1 --
2020-01-09 10:00:00 2.5 7 Sudoeste 10 Sudeste 0 992.6 -0.3 --
2020-01-09 09:00:00 2.3 4 Sudeste 8 Oeste 0 992.6 -0.3 --
2020-01-09 08:00:00 2.2 6 Sudoeste 8 Oeste 0 992.9 -0.5 --
2020-01-09 07:00:00 2.2 7 Sudoeste 9 Sudoeste 0 992.9 -1.1 --
2020-01-09 06:00:00 2.3 6 Sudoeste 9 Sur 0 992.9 -1.6 --
2020-01-09 05:00:00 2.5 6 Sur 10 Sur 0 993.4 -0.9 --
2020-01-09 04:00:00 2.6 8 Sudoeste 10 Sudoeste 0 994 -0.6 --
2020-01-09 03:00:00 2.7 6 Sudoeste 10 Sudoeste 0 994.5 -0.5 --
2020-01-09 02:00:00 3.1 5 Sudoeste 6 Sudoeste 0 994.3 -0.8 --
2020-01-09 01:00:00 3.2 4 Sudeste 9 Este 0 994.6 -0.5 --
2020-01-09 00:00:00 3.4 7 Sudeste 14 Este 0 995 -0.2 --
2020-01-08 23:00:00 3.4 6 Sur 9 Sudoeste 0 995.1 -0.4 --
2020-01-08 22:00:00 3.6 6 Sur 11 Sur 0 995.1 -0.4 --
2020-01-08 21:00:00 3.8 4 Sur 10 Sudeste 0 995.2 0.1 --
2020-01-08 20:00:00 4.3 5 Sudeste 9 Este 0 995.5 0.6 --
2020-01-08 19:00:00 3.9 3 Nordeste 9 Nordeste 0 995.5 0.8 --
2020-01-08 18:00:00 4.1 5 Este 8 Nordeste 0 995.1 0.2 --
2020-01-08 17:00:00 4.4 2 Sudoeste 12 Este 0 994.9 -0.3 --
2020-01-08 16:00:00 4.1 8 Sudeste 13 Este 0 994.7 -1.1 --
2020-01-08 15:00:00 4.2 5 Este 12 Este 0 994.9 -1.6 --
2020-01-08 14:00:00 4 8 Sudeste 14 Sudeste 0 995.2 -1.3 --
2020-01-08 13:00:00 3.2 12 Este 18 Este 0 995.8 0 --
2020-01-08 12:00:00 2.7 9 Sudeste 19 Este 0 996.5 1.3 --
2020-01-08 11:00:00 2.3 10 Este 17 Este 0 996.5 2.2 --
2020-01-08 10:00:00 1.2 5 Sur 8 Sur 0 995.8 2.1 --
2020-01-08 09:00:00 0.4 9 Sur 19 Sudeste 0 995.2 1.6 --
2020-01-08 08:00:00 1.8 14 Este 20 Este 0 994.3 0.9 --
2020-01-08 07:00:00 1.3 10 Este 17 Este 0 993.7 0.2 --
2020-01-08 06:00:00 1.5 7 Este 21 Este 0 993.6 -0.1 --
2020-01-08 05:00:00 1.3 8 Este 19 Este 0 993.4 -0.4 --
2020-01-08 04:00:00 1.5 11 Este 18 Este 0 993.5 -0.6 --
2020-01-08 03:00:00 1.4 8 Sudeste 12 Este 0 993.7 -0.7 --
2020-01-08 02:00:00 1 3 Nordeste 6 Noroeste 0 993.8 -0.5 --
2020-01-08 01:00:00 1.7 4 Nordeste 14 Este 0 994.1 -0.2 --
2020-01-08 00:00:00 1.8 6 Este 24 Este 0 994.4 0.3 --
2020-01-07 23:00:00 2.1 18 Este 26 Este 0 994.3 0.3 --
2020-01-07 22:00:00 2.6 15 Este 21 Este 0 994.3 0.4 --
2020-01-07 21:00:00 2.3 12 Este 15 Este 0 994.1 0.3 --
2020-01-07 20:00:00 2.4 11 Este 18 Este 0 994 0 --
2020-01-07 19:00:00 3.3 12 Este 15 Este 0 993.9 -0.2 --
2020-01-07 18:00:00 4.8 2 Sur 5 Sudeste 0 993.8 -0.5 --
2020-01-07 17:00:00 5.9 0 Calma 4 Sudoeste 0 994 -1.3 --
2020-01-07 16:00:00 4.2 3 Norte 8 Norte 0 994.1 -2.5 --
2020-01-07 15:00:00 3.5 3 Este 6 Nordeste 0 994.3 -3.1 --
2020-01-07 14:00:00 3 2 Este 7 Sudoeste 0 995.3 -2.2 --
2020-01-07 13:00:00 2.5 3 Sur 8 Sudeste 0 996.6 -0.6 --
2020-01-07 12:00:00 1.8 3 Nordeste 9 Sudeste 0 997.4 0.6 --
2020-01-07 11:00:00 1.2 3 Sudeste 9 Sur 0 997.5 1 --
2020-01-07 10:00:00 0.8 4 Sur 10 Sudeste 0 997.2 0.8 --
2020-01-07 09:00:00 0.5 5 Sur 6 Sur 0 996.8 0.6 --
2020-01-07 08:00:00 0.8 3 Sur 9 Este 0 996.5 0.4 --
2020-01-07 07:00:00 0.7 5 Nordeste 9 Nordeste 0 996.4 0.2 --
2020-01-07 06:00:00 0.5 7 Este 17 Este 0 996.2 0.2 --
2020-01-07 05:00:00 -0.1 9 Este 14 Este 0 996.1 0.1 --
2020-01-07 04:00:00 -0.2 7 Este 9 Sudeste 0 996.2 0 --
2020-01-07 03:00:00 0 5 Sur 10 Sudoeste 0 996 -0.1 --
2020-01-07 02:00:00 0.7 5 Sudoeste 9 Sudoeste 0 996 0 --
2020-01-07 01:00:00 0.9 6 Sudoeste 9 Sur 0 996.2 0.1 --
2020-01-07 00:00:00 1 6 Sur 14 Oeste 0 996.1 0.3 --
2020-01-06 23:00:00 1.1 12 Oeste 17 Oeste 0 996 0.5 --
2020-01-06 22:00:00 1.6 9 Noroeste 16 Noroeste 0 996.1 1 --
2020-01-06 21:00:00 1.6 8 Oeste 17 Noroeste 0 995.8 1.4 --
2020-01-06 20:00:00 1.8 12 Oeste 19 Oeste 0 995.5 1.6 --
2020-01-06 19:00:00 2.3 9 Oeste 13 Sudoeste 0 995.1 1.1 --
2020-01-06 18:00:00 2.6 9 Oeste 13 Noroeste 0 994.4 0.8 --
2020-01-06 17:00:00 3 4 Sur 11 Sudoeste 0 993.9 -0.3 --
2020-01-06 16:00:00 3.1 6 Sudoeste 12 Oeste 0 994 -1.1 --
2020-01-06 15:00:00 3.4 4 Oeste 9 Noroeste 0 993.6 -2.2 --
2020-01-06 14:00:00 3.1 3 Sudoeste 9 Noroeste 0 994.2 -1.6 --
2020-01-06 13:00:00 2.5 4 Noroeste 9 Oeste 0 995.1 -0.7 --
2020-01-06 12:00:00 2.3 5 Noroeste 8 Noroeste 0 995.8 0.4 --
2020-01-06 11:00:00 2 2 Nordeste 7 Norte 0 995.8 1.2 --
2020-01-06 10:00:00 1.6 4 Noroeste 12 Noroeste 0 995.8 1.8 --